createdAt,value
2018-04-17T09:24:37.793Z,17.64
2018-04-17T09:25:46.611Z,17.66
2018-04-17T09:26:55.697Z,17.59
2018-04-17T09:28:04.515Z,17.68
2018-04-17T09:29:13.387Z,17.64
2018-04-17T09:30:22.165Z,17.75
2018-04-17T09:31:30.984Z,17.7
2018-04-17T09:32:39.805Z,17.64
2018-04-17T09:33:48.620Z,17.75
2018-04-17T09:34:57.446Z,17.64
2018-04-17T09:36:06.328Z,17.82
2018-04-17T09:37:15.097Z,17.72
2018-04-17T09:38:24.180Z,17.62
2018-04-17T09:39:33.015Z,17.71
2018-04-17T09:40:41.830Z,17.74
2018-04-17T09:41:50.657Z,17.78
2018-04-17T09:42:59.469Z,17.77
2018-04-17T09:44:08.297Z,17.82
2018-04-17T09:45:17.185Z,17.81
2018-04-17T09:46:26.295Z,17.87
2018-04-17T09:47:35.149Z,17.97
2018-04-17T09:48:43.998Z,17.97
2018-04-17T09:49:52.833Z,17.99
2018-04-17T09:51:01.716Z,18.03
2018-04-17T09:52:10.598Z,18.02
2018-04-17T09:53:19.490Z,18.03
2018-04-17T09:54:28.550Z,18.07
2018-04-17T09:55:37.784Z,18.14
2018-04-17T09:56:46.645Z,18.2
2018-04-17T09:57:55.489Z,18.21
2018-04-17T09:59:04.337Z,18.32
2018-04-17T10:00:13.189Z,18.27
2018-04-17T10:01:22.039Z,18.36
2018-04-17T10:02:30.880Z,18.35
2018-04-17T10:03:39.743Z,18.44
2018-04-17T10:04:48.553Z,18.42
2018-04-17T10:05:57.391Z,18.44
2018-04-17T10:07:06.242Z,18.51
2018-04-17T10:08:15.078Z,18.54
2018-04-17T10:09:23.916Z,18.51
2018-04-17T10:10:32.754Z,18.55
2018-04-17T10:11:41.600Z,18.63
2018-04-17T10:12:50.433Z,18.62
2018-04-17T10:13:59.272Z,18.69
2018-04-17T10:15:08.107Z,18.69
2018-04-17T10:16:16.951Z,18.76
2018-04-17T10:17:25.839Z,18.8
2018-04-17T10:18:34.910Z,18.76
2018-04-17T10:19:43.742Z,18.82
2018-04-17T10:20:52.578Z,18.82
2018-04-17T10:22:01.424Z,18.87
2018-04-17T10:23:10.260Z,18.87
2018-04-17T10:24:19.101Z,18.87
2018-04-17T10:25:27.939Z,18.82
2018-04-17T10:26:36.797Z,18.72
2018-04-17T10:27:45.718Z,18.84
2018-04-17T10:28:54.707Z,18.82
2018-04-17T10:30:04.020Z,18.82
2018-04-17T10:31:13.315Z,18.81
2018-04-17T10:32:22.266Z,18.88
2018-04-17T10:33:31.183Z,18.82
2018-04-17T10:34:40.165Z,18.91
2018-04-17T10:35:49.136Z,18.95
2018-04-17T10:36:58.092Z,18.92
2018-04-17T10:38:07.383Z,18.92
2018-04-17T10:39:16.565Z,18.95
2018-04-17T10:40:25.423Z,18.91
2018-04-17T10:41:34.249Z,18.98
2018-04-17T10:42:43.075Z,18.99
2018-04-17T10:43:51.902Z,19.04
2018-04-17T10:45:00.727Z,18.98
2018-04-17T10:46:09.548Z,19.02
2018-04-17T10:47:18.364Z,18.99
2018-04-17T10:48:27.193Z,18.98
2018-04-17T10:49:36.020Z,19.14
2018-04-17T10:50:44.850Z,19.14
2018-04-17T10:51:53.662Z,19.16
2018-04-17T10:53:02.490Z,19.11
2018-04-17T10:54:11.315Z,19.08
2018-04-17T10:55:20.166Z,19.18
2018-04-17T10:56:28.957Z,19.16
2018-04-17T10:57:38.056Z,19.14
2018-04-17T10:58:46.921Z,19.21
2018-04-17T10:59:55.835Z,19.22
2018-04-17T11:01:04.784Z,19.21
2018-04-17T11:02:13.691Z,19.21
2018-04-17T11:03:22.650Z,19.21
2018-04-17T11:04:31.820Z,19.23
2018-04-17T11:05:40.721Z,19.21
2018-04-17T11:06:49.636Z,19.23
2018-04-17T11:07:58.539Z,19.19
2018-04-17T11:09:07.430Z,19.21
2018-04-17T11:10:16.256Z,19.18
2018-04-17T11:11:25.079Z,19.21
2018-04-17T11:12:33.910Z,19.31
2018-04-17T11:13:42.732Z,19.31
2018-04-17T11:14:51.563Z,19.31
2018-04-17T11:16:00.381Z,19.33
2018-04-17T11:17:09.211Z,19.32
2018-04-17T11:18:18.034Z,19.31
2018-04-17T11:19:26.867Z,19.33
2018-04-17T11:20:35.730Z,19.19
2018-04-17T11:21:44.621Z,19.32
2018-04-17T11:22:53.442Z,19.28
2018-04-17T11:24:02.270Z,19.33
2018-04-17T11:25:11.099Z,19.32
2018-04-17T11:26:19.924Z,19.37
2018-04-17T11:27:29.019Z,19.33
2018-04-17T11:28:37.941Z,19.37
2018-04-17T11:29:46.754Z,19.37
2018-04-17T11:30:55.583Z,19.39
2018-04-17T11:32:04.420Z,19.39
2018-04-17T11:33:13.241Z,19.4
2018-04-17T11:34:22.091Z,19.31
2018-04-17T11:35:31.290Z,19.37
2018-04-17T11:36:40.202Z,19.37
2018-04-17T11:37:49.155Z,19.37
2018-04-17T11:38:58.043Z,19.37
2018-04-17T11:40:06.954Z,19.36
2018-04-17T11:41:15.806Z,19.29
2018-04-17T11:42:24.965Z,19.31
2018-04-17T11:43:33.877Z,19.41
2018-04-17T11:44:43.019Z,19.39
2018-04-17T11:45:52.001Z,19.4
2018-04-17T11:47:00.823Z,19.41
2018-04-17T11:48:09.694Z,19.43
2018-04-17T11:49:18.700Z,19.36
2018-04-17T11:50:27.610Z,19.25
2018-04-17T11:51:36.519Z,19.36
2018-04-17T11:52:45.451Z,19.28
2018-04-17T11:55:24.373Z,19.26
2018-04-17T11:56:33.682Z,19.37
2018-04-17T11:57:42.509Z,19.46
2018-04-17T11:58:51.344Z,19.48
2018-04-17T12:00:00.181Z,19.46
2018-04-17T12:01:09.008Z,19.48
2018-04-17T12:02:17.881Z,19.36
2018-04-17T12:03:26.694Z,19.32
2018-04-17T12:04:35.786Z,19.33
2018-04-17T12:05:44.621Z,19.37
2018-04-17T12:06:53.438Z,19.33
2018-04-17T12:08:02.273Z,19.19
2018-04-17T12:09:11.099Z,19.22
2018-04-17T12:10:19.929Z,19.25
2018-04-17T12:11:28.761Z,19.16
2018-04-17T12:12:37.588Z,19.13
2018-04-17T12:13:46.686Z,19.19
2018-04-17T12:14:55.514Z,19.23
2018-04-17T12:16:04.346Z,19.31
2018-04-17T12:17:13.175Z,19.37
2018-04-17T12:18:22.007Z,19.47
2018-04-17T12:19:30.828Z,19.55
2018-04-17T12:20:39.662Z,19.55
2018-04-17T12:21:48.489Z,19.54
2018-04-17T12:22:57.318Z,19.5
2018-04-17T12:24:06.149Z,19.5
2018-04-17T12:25:14.974Z,19.48
2018-04-17T12:26:24.073Z,19.41
2018-04-17T12:27:32.898Z,19.44
2018-04-17T12:28:41.723Z,19.36
2018-04-17T12:29:50.560Z,19.37
2018-04-17T12:30:59.390Z,19.33
2018-04-17T12:32:08.212Z,19.33
2018-04-17T12:33:17.043Z,19.36
2018-04-17T12:34:25.864Z,19.31
2018-04-17T12:35:34.970Z,19.33
2018-04-17T12:36:43.801Z,19.4
2018-04-17T12:37:53.169Z,19.43
2018-04-17T12:39:01.994Z,19.5
2018-04-17T12:40:10.826Z,19.56
2018-04-17T12:41:19.922Z,19.63
2018-04-17T12:42:28.755Z,19.66
2018-04-17T12:43:37.848Z,19.63
2018-04-17T12:44:46.682Z,19.76
2018-04-17T12:45:55.501Z,19.78
2018-04-17T12:47:04.335Z,19.78
2018-04-17T12:48:13.159Z,19.87
2018-04-17T12:49:22.003Z,19.92
2018-04-17T12:50:31.093Z,20.1
2018-04-17T12:51:39.920Z,20.03
2018-04-17T12:52:48.755Z,20.03
2018-04-17T12:53:57.578Z,20.18
2018-04-17T12:55:06.406Z,20.14
2018-04-17T12:56:15.232Z,20.13
2018-04-17T12:57:24.066Z,20.18
2018-04-17T12:58:32.896Z,20.17
2018-04-17T12:59:41.725Z,20.14
2018-04-17T13:00:50.561Z,20.2
2018-04-17T13:01:59.917Z,20.14
2018-04-17T13:03:08.749Z,20.29
2018-04-17T13:04:17.582Z,20.28
2018-04-17T13:05:26.412Z,20.41
2018-04-17T13:06:35.516Z,20.38
2018-04-17T13:07:44.389Z,20.39
2018-04-17T13:08:53.326Z,20.47
2018-04-17T13:10:02.105Z,20.51
2018-04-17T13:11:10.957Z,20.47
2018-04-17T13:12:19.840Z,20.64
2018-04-17T13:13:28.668Z,20.59
2018-04-17T13:14:37.497Z,20.55
2018-04-17T13:15:46.525Z,20.58
2018-04-17T13:16:55.361Z,20.52
2018-04-17T13:18:04.287Z,20.52
2018-04-17T13:19:13.137Z,20.51
2018-04-17T13:20:21.995Z,20.5
2018-04-17T13:21:31.309Z,20.47
2018-04-17T13:22:40.433Z,20.5
2018-04-17T13:23:49.649Z,20.48
2018-04-17T13:24:58.746Z,20.39
2018-04-17T13:26:07.578Z,20.33
2018-04-17T13:27:16.402Z,20.29
2018-04-17T13:28:25.233Z,20.29
2018-04-17T13:29:34.135Z,20.33
2018-04-17T13:30:43.208Z,20.35
2018-04-17T13:31:52.392Z,20.32
2018-04-17T13:33:01.226Z,20.26
2018-04-17T13:34:10.048Z,20.38
2018-04-17T13:35:19.283Z,20.32
2018-04-17T13:36:28.812Z,20.36
2018-04-17T13:37:37.714Z,20.28
2018-04-17T13:38:46.985Z,20.29
2018-04-17T13:39:55.927Z,20.28
2018-04-17T13:41:05.078Z,20.33
2018-04-17T13:42:14.073Z,20.32
2018-04-17T13:43:23.227Z,20.28
2018-04-17T13:44:32.159Z,20.1
2018-04-17T13:45:41.432Z,20.06
2018-04-17T13:46:50.636Z,20.08
2018-04-17T13:47:59.464Z,19.86
2018-04-17T13:49:08.285Z,19.87
2018-04-17T13:50:17.114Z,19.88
2018-04-17T13:51:25.942Z,19.91
2018-04-17T13:52:34.772Z,19.88
2018-04-17T13:53:43.594Z,19.91
2018-04-17T13:54:52.430Z,19.96
2018-04-17T13:56:01.264Z,20.01
2018-04-17T13:57:10.096Z,19.98
2018-04-17T13:58:18.917Z,20.13
2018-04-17T13:59:27.744Z,20.06
2018-04-17T14:00:36.573Z,20.08
2018-04-17T14:01:45.415Z,20.13
2018-04-17T14:02:54.242Z,20.18
2018-04-17T14:04:03.332Z,20.14
2018-04-17T14:05:12.158Z,20.18
2018-04-17T14:06:20.985Z,20.23
2018-04-17T14:07:29.819Z,20.24
2018-04-17T14:08:38.652Z,20.32
2018-04-17T14:09:47.484Z,20.32
2018-04-17T14:10:56.306Z,20.28
2018-04-17T14:12:05.678Z,20.33
2018-04-17T14:13:14.768Z,20.32
2018-04-17T14:14:23.656Z,20.32
2018-04-17T14:15:32.563Z,20.31
2018-04-17T14:16:41.394Z,20.36
2018-04-17T14:17:50.250Z,20.29
2018-04-17T14:18:59.156Z,20.26
2018-04-17T14:20:08.178Z,20.29
2018-04-17T14:21:17.422Z,20.21
2018-04-17T14:22:26.259Z,20.24
2018-04-17T14:23:35.354Z,20.23
2018-04-17T14:24:44.184Z,20.16
2018-04-17T14:25:53.007Z,20.16
2018-04-17T14:27:02.225Z,20.17
2018-04-17T14:28:11.056Z,20.26
2018-04-17T14:29:19.894Z,20.2
2018-04-17T14:30:28.720Z,20.29
2018-04-17T14:31:37.555Z,20.2
2018-04-17T14:32:46.648Z,20.17
2018-04-17T14:33:55.486Z,20.18
2018-04-17T14:35:04.313Z,20.1
2018-04-17T14:36:13.139Z,20.06
2018-04-17T14:37:21.977Z,20.03
2018-04-17T14:38:30.837Z,20.01
2018-04-17T14:39:39.739Z,20.01
2018-04-17T14:40:48.667Z,20.01
2018-04-17T14:41:58.159Z,19.87
2018-04-17T14:43:07.094Z,19.87
2018-04-17T14:44:16.273Z,19.88
2018-04-17T14:45:25.117Z,19.92
2018-04-17T14:46:34.046Z,19.84
2018-04-17T14:47:43.204Z,19.77
2018-04-17T14:48:52.301Z,19.8
2018-04-17T14:50:01.409Z,19.71
2018-04-17T14:51:10.244Z,19.62
2018-04-17T14:52:19.065Z,19.65
2018-04-17T14:53:27.899Z,19.68
2018-04-17T14:54:36.724Z,19.62
2018-04-17T14:55:45.558Z,19.66
2018-04-17T14:56:54.648Z,19.77
2018-04-17T14:58:03.761Z,19.73
2018-04-17T14:59:12.848Z,19.77
2018-04-17T15:00:21.683Z,19.74
2018-04-17T15:01:30.512Z,19.77
2018-04-17T15:02:39.342Z,19.74
2018-04-17T15:03:48.167Z,19.77
2018-04-17T15:04:56.990Z,19.76
2018-04-17T15:06:05.826Z,19.81
2018-04-17T15:07:14.650Z,19.8
2018-04-17T15:08:23.754Z,19.76
2018-04-17T15:09:32.580Z,19.74
2018-04-17T15:10:41.415Z,19.74
2018-04-17T15:11:50.238Z,19.76
2018-04-17T15:12:59.065Z,19.8
2018-04-17T15:14:08.167Z,19.74
2018-04-17T15:15:17.019Z,19.77
2018-04-17T15:16:26.151Z,19.77
2018-04-17T15:17:35.106Z,19.65
2018-04-17T15:18:44.112Z,19.77
2018-04-17T15:19:52.936Z,19.62
2018-04-17T15:21:01.759Z,19.61
2018-04-17T15:22:10.589Z,19.69
2018-04-17T15:23:19.422Z,19.73
2018-04-17T15:24:28.257Z,19.71
2018-04-17T15:25:37.077Z,19.68
2018-04-17T15:26:45.908Z,19.69
2018-04-17T15:27:54.734Z,19.62
2018-04-17T15:29:03.616Z,19.73
2018-04-17T15:30:12.438Z,19.74
2018-04-17T15:31:21.270Z,19.61
2018-04-17T15:32:30.104Z,19.65
2018-04-17T15:33:39.198Z,19.71
2018-04-17T15:34:48.032Z,19.69
2018-04-17T15:35:56.860Z,19.68
2018-04-17T15:37:05.772Z,19.66
2018-04-17T15:38:14.713Z,19.66
2018-04-17T15:39:23.534Z,19.65
2018-04-17T15:40:32.630Z,19.76
2018-04-17T15:41:41.457Z,19.66
2018-04-17T15:42:50.280Z,19.71
2018-04-17T15:43:59.122Z,19.65
2018-04-17T15:45:07.952Z,19.59
2018-04-17T15:46:16.780Z,19.62
2018-04-17T15:47:25.876Z,19.62
2018-04-17T15:48:34.702Z,19.56
2018-04-17T15:49:43.796Z,19.71
2018-04-17T15:50:53.491Z,19.62
2018-04-17T15:52:02.317Z,19.61
2018-04-17T15:53:11.149Z,19.63
2018-04-17T15:54:19.974Z,19.58
2018-04-17T15:55:29.076Z,19.56
2018-04-17T15:56:37.951Z,19.56
2018-04-17T15:57:46.775Z,19.44
2018-04-17T15:58:55.604Z,19.41
2018-04-17T16:00:04.430Z,19.43
2018-04-17T16:01:13.268Z,19.4
2018-04-17T16:02:22.083Z,19.41
2018-04-17T16:03:31.268Z,19.4
2018-04-17T16:04:40.408Z,19.5
2018-04-17T16:05:49.243Z,19.46
2018-04-17T16:06:58.220Z,19.43
2018-04-17T16:08:07.405Z,19.54
2018-04-17T16:09:16.670Z,19.51
2018-04-17T16:10:25.916Z,19.5
2018-04-17T16:11:35.107Z,19.48
2018-04-17T16:12:44.070Z,19.46
2018-04-17T16:13:53.663Z,19.51
2018-04-17T16:15:02.849Z,19.54
2018-04-17T16:16:12.017Z,19.41
2018-04-17T16:17:21.177Z,19.36
2018-04-17T16:18:30.380Z,19.43
2018-04-17T16:19:39.317Z,19.41
2018-04-17T16:20:48.148Z,19.37
2018-04-17T16:21:56.973Z,19.32
2018-04-17T16:23:05.812Z,19.31
2018-04-17T16:24:14.631Z,19.29
2018-04-17T16:25:23.467Z,19.32
2018-04-17T16:26:32.574Z,19.21
2018-04-17T16:27:41.425Z,19.18
2018-04-17T16:28:50.248Z,19.18
2018-04-17T16:29:59.367Z,19.25
2018-04-17T16:31:08.336Z,19.16
2018-04-17T16:32:18.173Z,19.13
2018-04-17T16:33:27.300Z,19.11
2018-04-17T16:34:36.828Z,19.08
2018-04-17T16:35:45.802Z,19.04
2018-04-17T16:36:55.008Z,19.02
2018-04-17T16:38:04.179Z,19
2018-04-17T16:39:13.402Z,18.99
2018-04-17T16:40:22.505Z,19.02
2018-04-17T16:41:31.362Z,19.02
2018-04-17T16:42:40.201Z,18.99
2018-04-17T16:43:49.291Z,18.94
2018-04-17T16:44:58.123Z,18.98
2018-04-17T16:46:06.952Z,18.99
2018-04-17T16:47:16.051Z,18.92
2018-04-17T16:48:24.883Z,18.91
2018-04-17T16:49:33.973Z,18.91
2018-04-17T16:50:43.142Z,18.91
2018-04-17T16:51:52.143Z,18.9
2018-04-17T16:53:00.987Z,18.87
2018-04-17T16:54:09.840Z,18.88
2018-04-17T16:55:18.676Z,18.87
2018-04-17T16:56:27.505Z,18.85
2018-04-17T16:57:36.339Z,18.84
2018-04-17T16:58:45.175Z,18.82
2018-04-17T16:59:54.559Z,18.84
2018-04-17T17:01:03.799Z,18.78
2018-04-17T17:02:13.436Z,18.75
2018-04-17T17:03:22.492Z,18.84
2018-04-17T17:04:31.343Z,18.85
2018-04-17T17:05:40.432Z,18.82
2018-04-17T17:06:49.408Z,18.84
2018-04-17T17:07:58.635Z,18.82
2018-04-17T17:09:07.559Z,18.78
2018-04-17T17:10:16.941Z,18.76
2018-04-17T17:11:26.177Z,18.76
2018-04-17T17:12:35.008Z,18.75
2018-04-17T17:13:44.547Z,18.75
2018-04-17T17:14:53.893Z,18.69
2018-04-17T17:16:03.196Z,18.66
2018-04-17T17:17:12.174Z,18.67
2018-04-17T17:18:21.700Z,18.7
2018-04-17T17:19:31.015Z,18.69
2018-04-17T17:20:40.542Z,18.52
2018-04-17T17:21:49.403Z,18.69
2018-04-17T17:22:58.347Z,18.67
2018-04-17T17:24:07.599Z,18.6
2018-04-17T17:25:16.484Z,18.66
2018-04-17T17:26:25.782Z,18.65
2018-04-17T17:27:35.053Z,18.6
2018-04-17T17:28:44.669Z,18.66
2018-04-17T17:29:54.307Z,18.63
2018-04-17T17:31:03.256Z,18.55
2018-04-17T17:32:12.087Z,18.58
2018-04-17T17:33:20.911Z,18.6
2018-04-17T17:34:30.163Z,18.54
2018-04-17T17:35:38.984Z,18.54
2018-04-17T17:36:47.811Z,18.54
2018-04-17T17:37:56.641Z,18.52
2018-04-17T17:39:05.477Z,18.51
2018-04-17T17:40:14.307Z,18.55
2018-04-17T17:41:23.402Z,18.42
2018-04-17T17:42:32.219Z,18.44
2018-04-17T17:43:41.051Z,18.45
2018-04-17T17:44:49.882Z,18.51
2018-04-17T17:45:58.711Z,18.52
2018-04-17T17:47:07.816Z,18.41
2018-04-17T17:48:16.638Z,18.37
2018-04-17T17:49:25.751Z,18.44
2018-04-17T17:50:34.578Z,18.35
2018-04-17T17:51:43.417Z,18.39
2018-04-17T17:52:52.234Z,18.35
2018-04-17T17:54:01.062Z,18.27
2018-04-17T17:55:09.899Z,18.39
2018-04-17T17:56:18.757Z,18.39
2018-04-17T17:57:28.234Z,18.35
2018-04-17T17:58:37.055Z,18.3
2018-04-17T17:59:45.903Z,18.29
2018-04-17T18:00:54.745Z,18.25
2018-04-17T18:02:03.578Z,18.3
2018-04-17T18:03:12.423Z,18.2
2018-04-17T18:04:21.266Z,18.18
2018-04-17T18:05:30.112Z,18.17
2018-04-17T18:06:38.960Z,18.14
2018-04-17T18:07:47.811Z,18.1
2018-04-17T18:08:56.653Z,18.11
2018-04-17T18:10:05.473Z,18.11
2018-04-17T18:11:14.381Z,18.12
2018-04-17T18:12:23.164Z,18.11
2018-04-17T18:13:31.966Z,18.07
2018-04-17T18:14:40.804Z,18.1
2018-04-17T18:15:49.921Z,18.05
2018-04-17T18:16:58.764Z,18.02
2018-04-17T18:18:07.617Z,18.03
2018-04-17T18:19:16.458Z,18.03
2018-04-17T18:20:25.301Z,17.96
2018-04-17T18:21:34.156Z,18.05
2018-04-17T18:22:42.995Z,18
2018-04-17T18:23:51.843Z,18
2018-04-17T18:25:00.678Z,17.97
2018-04-17T18:26:09.523Z,17.89
2018-04-17T18:27:18.377Z,17.95
2018-04-17T18:28:27.226Z,17.93
2018-04-17T18:29:36.358Z,17.99
2018-04-17T18:30:45.179Z,17.93
2018-04-17T18:31:54.024Z,17.87
2018-04-17T18:33:02.877Z,17.9
2018-04-17T18:34:11.721Z,17.87
2018-04-17T18:35:20.842Z,17.86
2018-04-17T18:36:29.693Z,17.84
2018-04-17T18:37:38.536Z,17.81
2018-04-17T18:38:47.381Z,17.78
2018-04-17T18:39:56.231Z,17.79
2018-04-17T18:41:05.086Z,17.77
2018-04-17T18:42:13.927Z,17.74
2018-04-17T18:43:22.774Z,17.71
2018-04-17T18:44:31.620Z,17.75
2018-04-17T18:45:40.474Z,17.78
2018-04-17T18:46:49.314Z,17.77
2018-04-17T18:47:58.160Z,17.64
2018-04-17T18:49:07.002Z,17.66
2018-04-17T18:50:15.846Z,17.71
2018-04-17T18:51:24.686Z,17.74
2018-04-17T18:52:33.547Z,17.77
2018-04-17T18:53:42.656Z,17.71
2018-04-17T18:54:51.500Z,17.68
2018-04-17T18:56:00.335Z,17.72
2018-04-17T18:57:09.182Z,17.64
2018-04-17T18:58:18.295Z,17.64
2018-04-17T18:59:27.144Z,17.59
2018-04-17T19:00:35.992Z,17.58
2018-04-17T19:01:44.830Z,17.55
2018-04-17T19:02:53.684Z,17.59
2018-04-17T19:04:02.529Z,17.54
2018-04-17T19:05:11.379Z,17.55
2018-04-17T19:06:20.218Z,17.54
2018-04-17T19:07:29.333Z,17.52
2018-04-17T19:08:38.179Z,17.49
2018-04-17T19:09:47.023Z,17.46
2018-04-17T19:10:55.844Z,17.46
2018-04-17T19:12:04.941Z,17.48
2018-04-17T19:13:13.773Z,17.43
2018-04-17T19:14:22.682Z,17.48
2018-04-17T19:15:31.728Z,17.41
2018-04-17T19:16:41.151Z,17.4
2018-04-17T19:17:50.286Z,17.4
2018-04-17T19:18:59.184Z,17.41
2018-04-17T19:20:08.149Z,17.43
2018-04-17T19:21:17.170Z,17.37
2018-04-17T19:22:26.512Z,17.34
2018-04-17T19:23:35.739Z,17.37
2018-04-17T19:24:44.708Z,17.26
2018-04-17T19:25:53.612Z,17.31
2018-04-17T19:27:02.880Z,17.31
2018-04-17T19:28:11.862Z,17.3
2018-04-17T19:29:20.758Z,17.23
2018-04-17T19:30:29.609Z,17.31
2018-04-17T19:31:38.516Z,17.25
2018-04-17T19:32:47.470Z,17.26
2018-04-17T19:33:56.519Z,17.26
2018-04-17T19:35:05.510Z,17.18
2018-04-17T19:36:14.528Z,17.16
2018-04-17T19:37:23.348Z,17.22
2018-04-17T19:38:32.285Z,17.18
2018-04-17T19:39:41.860Z,17.14
2018-04-17T19:40:51.092Z,17.15
2018-04-17T19:42:00.340Z,17.08
2018-04-17T19:43:09.246Z,17.11
2018-04-17T19:44:18.185Z,17.14
2018-04-17T19:45:27.124Z,17.19
2018-04-17T19:46:36.234Z,17.15
2018-04-17T19:47:45.456Z,17.21
2018-04-17T19:48:54.604Z,17.15
2018-04-17T19:50:03.555Z,17.16
2018-04-17T19:51:12.508Z,17.15
2018-04-17T19:52:21.434Z,17.16
2018-04-17T19:53:30.673Z,17.04
2018-04-17T19:54:39.598Z,17.06
2018-04-17T19:55:48.520Z,17.04
2018-04-17T19:56:57.726Z,17
2018-04-17T19:58:06.598Z,16.96
2018-04-17T19:59:15.870Z,16.91
2018-04-17T20:00:25.051Z,16.96
2018-04-17T20:01:34.320Z,16.88
2018-04-17T20:02:43.346Z,16.97
2018-04-17T20:03:52.261Z,16.98
2018-04-17T20:05:01.740Z,16.94
2018-04-17T20:06:10.671Z,16.97
2018-04-17T20:07:19.628Z,16.96
2018-04-17T20:08:28.824Z,16.94
2018-04-17T20:09:37.779Z,16.94
2018-04-17T20:10:46.649Z,16.91
2018-04-17T20:11:56.052Z,16.89
2018-04-17T20:13:05.660Z,16.94
2018-04-17T20:14:14.483Z,16.86
2018-04-17T20:15:23.449Z,16.86
2018-04-17T20:16:32.451Z,16.85
2018-04-17T20:17:41.497Z,16.81
2018-04-17T20:18:51.281Z,16.79
2018-04-17T20:20:00.232Z,16.81
2018-04-17T20:21:09.729Z,16.82
2018-04-17T20:22:18.906Z,16.79
2018-04-17T20:23:28.145Z,16.82
2018-04-17T20:24:37.147Z,16.78
2018-04-17T20:25:45.988Z,16.79
2018-04-17T20:26:55.057Z,16.73
2018-04-17T20:28:04.237Z,16.81
2018-04-17T20:29:13.268Z,16.75
2018-04-17T20:30:22.124Z,16.71
2018-04-17T20:31:31.023Z,16.67
2018-04-17T20:32:40.004Z,16.76
2018-04-17T20:33:48.822Z,16.78
2018-04-17T20:34:58.008Z,16.76
2018-04-17T20:36:06.929Z,16.68
2018-04-17T20:37:16.068Z,16.66
2018-04-17T20:38:24.889Z,16.68
2018-04-17T20:39:33.811Z,16.71
2018-04-17T20:40:43.412Z,16.73
2018-04-17T20:41:52.249Z,16.73
2018-04-17T20:43:01.070Z,16.71
2018-04-17T20:44:10.279Z,16.6
2018-04-17T20:45:19.109Z,16.56
2018-04-17T20:46:27.952Z,16.56
2018-04-17T20:47:37.115Z,16.56
2018-04-17T20:48:45.936Z,16.6
2018-04-17T20:49:54.799Z,16.56
2018-04-17T20:51:03.621Z,16.57
2018-04-17T20:52:12.698Z,16.58
2018-04-17T20:53:21.796Z,16.56
2018-04-17T20:54:30.626Z,16.43
2018-04-17T20:55:39.444Z,16.52
2018-04-17T20:56:48.271Z,16.56
2018-04-17T20:57:57.104Z,16.53
2018-04-17T20:59:05.933Z,16.48
2018-04-17T21:00:14.758Z,16.45
2018-04-17T21:01:23.589Z,16.49
2018-04-17T21:02:32.447Z,16.5
2018-04-17T21:03:41.291Z,16.45
2018-04-17T21:04:50.130Z,16.43
2018-04-17T21:05:58.981Z,16.49
2018-04-17T21:07:07.827Z,16.49
2018-04-17T21:08:16.676Z,16.45
2018-04-17T21:09:25.521Z,16.41
2018-04-17T21:10:34.362Z,16.41
2018-04-17T21:11:43.202Z,16.5
2018-04-17T21:12:52.047Z,16.39
2018-04-17T21:14:00.899Z,16.41
2018-04-17T21:15:09.742Z,16.35
2018-04-17T21:16:18.570Z,16.35
2018-04-17T21:17:27.763Z,16.34
